Roanoke, VA (24017)

4:02 AM EDT on July 05, 2015 (GMT -0400)
Fairview Magnet ES | | Change Station
CLOSE
Current Station
Personal Weather Station
Location: Roanoke, VA
Elevation: 1070 ft
Nearby Weather Stations

Elev 1070 ft 37.29 °N, 80.00 °W | Updated 2 minutes ago

Partly Cloudy
Partly Cloudy
67.7 °F
Feels Like 67.7 °F
N
0.0
Wind Variable Wind from WNW
Gusts 0.0 mph

Today
High -- | Low -- °F
--% Chance of Precip.
Yesterday
High -- | Low -- °F
Precip. -- in
6:05 AM 8:43 PM
Waning Gibbous, 86% visible
Pressure 30.06 in
Visibility 10.0 miles
Clouds Few 15000 ft
Dew Point 66 °F
Humidity 94%
Rainfall 0.00 in
Snow Depth Not available.
UV 11.6 out of 12
Pollen .50 out of 12
Air Quality Not available.
Flu Activity Not available.
METAR KROA 050754Z 00000KT 10SM FEW150 20/18 A3010 RMK AO2 SLP180 T02000183

More Conditions Fewer Conditions

Pressure 30.06 in
Visibility 10.0 miles
Clouds Few 15000 ft
Dew Point 66 °F
Humidity 94%
Rainfall 0.00 in
Snow Depth Not available.
UV 11.6 out of 12
Pollen .50 out of 12
Air Quality Not available.
Flu Activity Not available.
METAR KROA 050754Z 00000KT 10SM FEW150 20/18 A3010 RMK AO2 SLP180 T02000183

More Conditions Fewer Conditions

10-Day Weather Forecast

×

Almanac

Astronomy

Jul. 05, 2015 Rise Set
Actual Time
Civil Twilight
Nautical Twilight
Astronomical Twilight
Moon
Length of Visible Light
Length of Day
Tomorrow will be .
, % of the Moon is Illuminated

Today's Extremes

State Highs State Lows

Community

WunderPhotos

Upload Photos

1,835,215 photos uploaded!

WunderBlogs® & News

Nearby

Air Quality

  Air Quality AQ Index Pollutant
Not available.

Snow Depth

Station Depth Elevation

Earthquake Activity

City Distance Mag. Time & Date
Minimum magnitude displayed is 2.5.

Coastal Water Temperatures

Place Temperature

Stations

Nearby Weather Stations

Station Location Temp. Windchill Dew Point Humidity Wind Precip. Elev Updated Type